Provideniya Bay Airport
UHMD : now visible

Aeroporto :











RITROVATECI SU...

 
LOGIN :

Iscrizione | Disclaimer

   EN    FR    IT 

 









Sommario :    VFR   VFR Marginale   IFR   IFR Intensivo   IFR Molto Intensivo
Visibilità : 
Base nubi : 
>= 8 km
>= 3000ft
5 / 8 km
1000 / 3000 ft
1500m / 5 km
500 / 1000 ft
800 / 1500m
200 / 500 ft
< 800m
< 200 ft
Simboli :   Temporali  Nebbia  Neve Forte  Precipitazioni Forti  Vento > 20 kt






- Altitudine del aeroporto : 72 ft
- Codice IATA : PVS


UHMD - Provideniya Bay

ULTIMO METAR :
  • 072330Z VRB01MPS CAVOK M11/M17 Q1016 RMK QFE761/1015

METARs OBSOLETI :
  • 072300Z VRB01MPS CAVOK M11/M17 Q1016 RMK QFE761/1015
  • 072230Z VRB01MPS CAVOK M12/M18 Q1016 RMK QFE761/1015
  • 072200Z 00000MPS CAVOK M13/M19 Q1016 RMK QFE762/1015
  • 072130Z 36001MPS CAVOK M13/M19 Q1016 RMK QFE762/1016
  • 072100Z 36002MPS CAVOK M14/M20 Q1016 RMK QFE762/1016
  • 072030Z 35002MPS CAVOK M14/M20 Q1016 RMK QFE762/1016

TAF TAF UHMD
Valido dal 08 a 00 ore il 08 a 06 ore UTC


072252Z 0800/0806 20003MPS 9999 SCT020



MetMap, La meteo Aeronautica in un colpo d'occhio ! - Copyright ORBIFLY Dicembre 2007 - Disclaimer

ORBIFLY MET'MAP TEAM :

Programmazione e sviluppo : Alexandra Zaïnal
Concezione : Baudouin d'Aumeries
Aiuto per la programmazione : Marc-Olivier Méhu
Supporto tecnico e logistico : Manuel Goepfert
Aiuto per la traduzione : Arnaldo La Scala

Contatto : metmap@orbifly.com




FONTI E CREDITI :

   NOAA       Earth
Advisory